sensor_id;sensor_type;location;lat;lon;timestamp;P1;durP1;ratioP1;P2;durP2;ratioP2
31081;SDS011;17737;52.586;13.284;2023-07-13T00:01:13;0.20;;;0.20;;
31081;SDS011;17737;52.586;13.284;2023-07-13T00:06:12;0.10;;;0.10;;
31081;SDS011;17737;52.586;13.284;2023-07-13T00:08:40;0.20;;;0.20;;
31081;SDS011;17737;52.586;13.284;2023-07-13T00:11:08;0.20;;;0.20;;
31081;SDS011;17737;52.586;13.284;2023-07-13T00:13:37;0.30;;;0.30;;
31081;SDS011;17737;52.586;13.284;2023-07-13T00:16:05;0.20;;;0.20;;
31081;SDS011;17737;52.586;13.284;2023-07-13T00:18:35;0.20;;;0.20;;
31081;SDS011;17737;52.586;13.284;2023-07-13T00:21:04;0.20;;;0.20;;
31081;SDS011;17737;52.586;13.284;2023-07-13T00:23:34;0.20;;;0.20;;
31081;SDS011;17737;52.586;13.284;2023-07-13T00:26:06;0.20;;;0.20;;
31081;SDS011;17737;52.586;13.284;2023-07-13T00:28:37;0.20;;;0.20;;
31081;SDS011;17737;52.586;13.284;2023-07-13T00:31:08;0.30;;;0.30;;
31081;SDS011;17737;52.586;13.284;2023-07-13T00:33:37;0.20;;;0.20;;
31081;SDS011;17737;52.586;13.284;2023-07-13T00:36:05;0.25;;;0.25;;
31081;SDS011;17737;52.586;13.284;2023-07-13T00:38:35;0.20;;;0.20;;
31081;SDS011;17737;52.586;13.284;2023-07-13T00:41:04;0.20;;;0.20;;
31081;SDS011;17737;52.586;13.284;2023-07-13T00:43:32;0.22;;;0.22;;
31081;SDS011;17737;52.586;13.284;2023-07-13T00:46:17;0.20;;;0.20;;
31081;SDS011;17737;52.586;13.284;2023-07-13T00:48:53;0.30;;;0.30;;
31081;SDS011;17737;52.586;13.284;2023-07-13T00:51:27;0.20;;;0.20;;
31081;SDS011;17737;52.586;13.284;2023-07-13T00:54:05;0.20;;;0.20;;
31081;SDS011;17737;52.586;13.284;2023-07-13T00:56:40;0.30;;;0.30;;
31081;SDS011;17737;52.586;13.284;2023-07-13T00:59:13;0.20;;;0.20;;
31081;SDS011;17737;52.586;13.284;2023-07-13T01:01:45;0.20;;;0.20;;
31081;SDS011;17737;52.586;13.284;2023-07-13T01:04:15;0.20;;;0.20;;
31081;SDS011;17737;52.586;13.284;2023-07-13T01:06:44;0.20;;;0.20;;
31081;SDS011;17737;52.586;13.284;2023-07-13T01:09:14;0.30;;;0.30;;
31081;SDS011;17737;52.586;13.284;2023-07-13T01:11:44;0.20;;;0.20;;
31081;SDS011;17737;52.586;13.284;2023-07-13T01:14:12;0.20;;;0.20;;
31081;SDS011;17737;52.586;13.284;2023-07-13T01:16:41;0.20;;;0.20;;
31081;SDS011;17737;52.586;13.284;2023-07-13T01:19:16;0.20;;;0.20;;
31081;SDS011;17737;52.586;13.284;2023-07-13T01:22:04;0.22;;;0.22;;
31081;SDS011;17737;52.586;13.284;2023-07-13T01:24:35;0.20;;;0.20;;
31081;SDS011;17737;52.586;13.284;2023-07-13T01:27:05;0.30;;;0.30;;
31081;SDS011;17737;52.586;13.284;2023-07-13T01:29:36;0.20;;;0.20;;
31081;SDS011;17737;52.586;13.284;2023-07-13T01:32:09;0.20;;;0.20;;
31081;SDS011;17737;52.586;13.284;2023-07-13T01:34:39;0.17;;;0.17;;
31081;SDS011;17737;52.586;13.284;2023-07-13T01:39:40;0.20;;;0.20;;
31081;SDS011;17737;52.586;13.284;2023-07-13T01:42:08;0.20;;;0.20;;
31081;SDS011;17737;52.586;13.284;2023-07-13T01:44:36;0.30;;;0.30;;
31081;SDS011;17737;52.586;13.284;2023-07-13T01:47:05;0.28;;;0.28;;
31081;SDS011;17737;52.586;13.284;2023-07-13T01:49:33;0.20;;;0.20;;
31081;SDS011;17737;52.586;13.284;2023-07-13T01:52:01;0.20;;;0.20;;
31081;SDS011;17737;52.586;13.284;2023-07-13T01:54:30;0.10;;;0.10;;
31081;SDS011;17737;52.586;13.284;2023-07-13T01:57:00;0.20;;;0.20;;
31081;SDS011;17737;52.586;13.284;2023-07-13T01:59:29;0.20;;;0.20;;
31081;SDS011;17737;52.586;13.284;2023-07-13T02:01:59;0.20;;;0.20;;
31081;SDS011;17737;52.586;13.284;2023-07-13T02:04:27;0.20;;;0.20;;
31081;SDS011;17737;52.586;13.284;2023-07-13T02:06:55;0.20;;;0.20;;
31081;SDS011;17737;52.586;13.284;2023-07-13T02:09:24;0.22;;;0.22;;
31081;SDS011;17737;52.586;13.284;2023-07-13T02:11:53;0.30;;;0.30;;
31081;SDS011;17737;52.586;13.284;2023-07-13T02:14:21;0.25;;;0.25;;
31081;SDS011;17737;52.586;13.284;2023-07-13T02:16:49;0.30;;;0.30;;
31081;SDS011;17737;52.586;13.284;2023-07-13T02:19:17;0.20;;;0.20;;
31081;SDS011;17737;52.586;13.284;2023-07-13T02:21:45;0.20;;;0.20;;
31081;SDS011;17737;52.586;13.284;2023-07-13T02:24:13;0.30;;;0.30;;
31081;SDS011;17737;52.586;13.284;2023-07-13T02:26:43;0.20;;;0.20;;
31081;SDS011;17737;52.586;13.284;2023-07-13T02:29:13;0.20;;;0.20;;
31081;SDS011;17737;52.586;13.284;2023-07-13T02:31:42;0.20;;;0.20;;
31081;SDS011;17737;52.586;13.284;2023-07-13T02:34:10;0.30;;;0.30;;
31081;SDS011;17737;52.586;13.284;2023-07-13T02:36:38;0.17;;;0.17;;
31081;SDS011;17737;52.586;13.284;2023-07-13T02:39:07;0.22;;;0.22;;
31081;SDS011;17737;52.586;13.284;2023-07-13T02:41:36;0.30;;;0.30;;
31081;SDS011;17737;52.586;13.284;2023-07-13T02:44:04;0.20;;;0.20;;
31081;SDS011;17737;52.586;13.284;2023-07-13T02:46:36;0.10;;;0.10;;
31081;SDS011;17737;52.586;13.284;2023-07-13T02:49:05;0.20;;;0.20;;
31081;SDS011;17737;52.586;13.284;2023-07-13T02:51:33;0.22;;;0.22;;
31081;SDS011;17737;52.586;13.284;2023-07-13T02:54:01;0.30;;;0.30;;
31081;SDS011;17737;52.586;13.284;2023-07-13T02:56:33;0.25;;;0.25;;
31081;SDS011;17737;52.586;13.284;2023-07-13T03:01:29;0.20;;;0.20;;
31081;SDS011;17737;52.586;13.284;2023-07-13T03:06:28;0.20;;;0.20;;
31081;SDS011;17737;52.586;13.284;2023-07-13T03:11:26;0.25;;;0.25;;
31081;SDS011;17737;52.586;13.284;2023-07-13T03:13:54;0.30;;;0.30;;
31081;SDS011;17737;52.586;13.284;2023-07-13T03:16:23;0.20;;;0.20;;
31081;SDS011;17737;52.586;13.284;2023-07-13T03:18:51;0.20;;;0.20;;
31081;SDS011;17737;52.586;13.284;2023-07-13T03:21:20;0.30;;;0.30;;
31081;SDS011;17737;52.586;13.284;2023-07-13T03:23:48;0.20;;;0.20;;
31081;SDS011;17737;52.586;13.284;2023-07-13T03:26:17;0.30;;;0.30;;
31081;SDS011;17737;52.586;13.284;2023-07-13T03:28:47;0.28;;;0.28;;
31081;SDS011;17737;52.586;13.284;2023-07-13T03:31:16;0.22;;;0.22;;
31081;SDS011;17737;52.586;13.284;2023-07-13T03:33:47;0.30;;;0.30;;
31081;SDS011;17737;52.586;13.284;2023-07-13T03:36:16;0.20;;;0.20;;
31081;SDS011;17737;52.586;13.284;2023-07-13T03:38:49;0.10;;;0.10;;
31081;SDS011;17737;52.586;13.284;2023-07-13T03:41:20;0.20;;;0.20;;
31081;SDS011;17737;52.586;13.284;2023-07-13T03:43:49;0.20;;;0.20;;
31081;SDS011;17737;52.586;13.284;2023-07-13T03:46:17;0.20;;;0.20;;
31081;SDS011;17737;52.586;13.284;2023-07-13T03:48:46;0.20;;;0.20;;
31081;SDS011;17737;52.586;13.284;2023-07-13T03:51:16;0.30;;;0.30;;
31081;SDS011;17737;52.586;13.284;2023-07-13T03:53:46;0.28;;;0.28;;
31081;SDS011;17737;52.586;13.284;2023-07-13T03:56:16;0.20;;;0.20;;
31081;SDS011;17737;52.586;13.284;2023-07-13T03:58:46;0.20;;;0.20;;
31081;SDS011;17737;52.586;13.284;2023-07-13T04:01:17;0.20;;;0.20;;
31081;SDS011;17737;52.586;13.284;2023-07-13T04:03:48;0.30;;;0.30;;
31081;SDS011;17737;52.586;13.284;2023-07-13T04:06:17;0.20;;;0.20;;
31081;SDS011;17737;52.586;13.284;2023-07-13T04:08:51;0.20;;;0.20;;
31081;SDS011;17737;52.586;13.284;2023-07-13T04:11:22;0.20;;;0.20;;
31081;SDS011;17737;52.586;13.284;2023-07-13T04:13:52;0.20;;;0.20;;
31081;SDS011;17737;52.586;13.284;2023-07-13T04:16:21;0.20;;;0.20;;
31081;SDS011;17737;52.586;13.284;2023-07-13T04:18:49;0.20;;;0.20;;
31081;SDS011;17737;52.586;13.284;2023-07-13T04:21:21;0.20;;;0.20;;
31081;SDS011;17737;52.586;13.284;2023-07-13T04:23:50;0.20;;;0.20;;
31081;SDS011;17737;52.586;13.284;2023-07-13T04:26:18;0.10;;;0.10;;
31081;SDS011;17737;52.586;13.284;2023-07-13T04:28:49;0.10;;;0.10;;
31081;SDS011;17737;52.586;13.284;2023-07-13T04:31:17;0.20;;;0.20;;
31081;SDS011;17737;52.586;13.284;2023-07-13T04:33:48;0.20;;;0.20;;
31081;SDS011;17737;52.586;13.284;2023-07-13T04:38:46;0.20;;;0.20;;
31081;SDS011;17737;52.586;13.284;2023-07-13T04:41:16;0.20;;;0.20;;
31081;SDS011;17737;52.586;13.284;2023-07-13T04:43:44;0.20;;;0.20;;
31081;SDS011;17737;52.586;13.284;2023-07-13T04:46:13;0.20;;;0.20;;
31081;SDS011;17737;52.586;13.284;2023-07-13T04:48:45;0.10;;;0.10;;
31081;SDS011;17737;52.586;13.284;2023-07-13T04:51:14;0.20;;;0.20;;
31081;SDS011;17737;52.586;13.284;2023-07-13T04:53:42;0.10;;;0.10;;
31081;SDS011;17737;52.586;13.284;2023-07-13T04:56:10;0.20;;;0.20;;
31081;SDS011;17737;52.586;13.284;2023-07-13T04:58:39;0.20;;;0.20;;
31081;SDS011;17737;52.586;13.284;2023-07-13T05:01:09;0.10;;;0.10;;
31081;SDS011;17737;52.586;13.284;2023-07-13T05:03:38;0.10;;;0.10;;
31081;SDS011;17737;52.586;13.284;2023-07-13T05:06:06;0.20;;;0.20;;
31081;SDS011;17737;52.586;13.284;2023-07-13T05:08:37;0.10;;;0.10;;
31081;SDS011;17737;52.586;13.284;2023-07-13T05:11:05;0.10;;;0.10;;
31081;SDS011;17737;52.586;13.284;2023-07-13T05:13:34;0.10;;;0.10;;
31081;SDS011;17737;52.586;13.284;2023-07-13T05:16:04;0.10;;;0.10;;
31081;SDS011;17737;52.586;13.284;2023-07-13T05:18:34;0.20;;;0.20;;
31081;SDS011;17737;52.586;13.284;2023-07-13T05:21:07;0.10;;;0.10;;
31081;SDS011;17737;52.586;13.284;2023-07-13T05:23:37;0.15;;;0.15;;
31081;SDS011;17737;52.586;13.284;2023-07-13T05:26:08;0.10;;;0.10;;
31081;SDS011;17737;52.586;13.284;2023-07-13T05:28:36;0.10;;;0.10;;
31081;SDS011;17737;52.586;13.284;2023-07-13T05:31:08;0.10;;;0.10;;
31081;SDS011;17737;52.586;13.284;2023-07-13T05:33:37;0.10;;;0.10;;
31081;SDS011;17737;52.586;13.284;2023-07-13T05:36:06;0.13;;;0.13;;
31081;SDS011;17737;52.586;13.284;2023-07-13T05:38:34;0.10;;;0.10;;
31081;SDS011;17737;52.586;13.284;2023-07-13T05:41:02;0.10;;;0.10;;
31081;SDS011;17737;52.586;13.284;2023-07-13T05:43:31;0.10;;;0.10;;
31081;SDS011;17737;52.586;13.284;2023-07-13T05:45:59;0.10;;;0.10;;
31081;SDS011;17737;52.586;13.284;2023-07-13T05:48:29;0.10;;;0.10;;
31081;SDS011;17737;52.586;13.284;2023-07-13T05:50:57;0.10;;;0.10;;
31081;SDS011;17737;52.586;13.284;2023-07-13T05:53:25;0.13;;;0.13;;
31081;SDS011;17737;52.586;13.284;2023-07-13T05:55:53;0.10;;;0.10;;
31081;SDS011;17737;52.586;13.284;2023-07-13T05:58:26;0.13;;;0.13;;
31081;SDS011;17737;52.586;13.284;2023-07-13T06:00:58;0.10;;;0.10;;
31081;SDS011;17737;52.586;13.284;2023-07-13T06:03:30;0.10;;;0.10;;
31081;SDS011;17737;52.586;13.284;2023-07-13T06:05:58;0.10;;;0.10;;
31081;SDS011;17737;52.586;13.284;2023-07-13T06:08:27;0.10;;;0.10;;
31081;SDS011;17737;52.586;13.284;2023-07-13T06:11:01;0.10;;;0.10;;
31081;SDS011;17737;52.586;13.284;2023-07-13T06:13:31;0.20;;;0.20;;
31081;SDS011;17737;52.586;13.284;2023-07-13T06:16:00;0.20;;;0.20;;
31081;SDS011;17737;52.586;13.284;2023-07-13T06:18:31;0.20;;;0.20;;
31081;SDS011;17737;52.586;13.284;2023-07-13T06:21:01;0.10;;;0.10;;
31081;SDS011;17737;52.586;13.284;2023-07-13T06:23:34;0.10;;;0.10;;
31081;SDS011;17737;52.586;13.284;2023-07-13T06:26:03;0.20;;;0.20;;
31081;SDS011;17737;52.586;13.284;2023-07-13T06:28:31;0.20;;;0.20;;
31081;SDS011;17737;52.586;13.284;2023-07-13T06:31:01;0.17;;;0.17;;
31081;SDS011;17737;52.586;13.284;2023-07-13T06:33:33;0.20;;;0.20;;
31081;SDS011;17737;52.586;13.284;2023-07-13T06:38:30;0.20;;;0.20;;
31081;SDS011;17737;52.586;13.284;2023-07-13T06:40:59;0.10;;;0.10;;
31081;SDS011;17737;52.586;13.284;2023-07-13T06:43:27;0.20;;;0.20;;
31081;SDS011;17737;52.586;13.284;2023-07-13T06:45:56;0.20;;;0.20;;
31081;SDS011;17737;52.586;13.284;2023-07-13T06:48:24;0.10;;;0.10;;
31081;SDS011;17737;52.586;13.284;2023-07-13T06:50:54;0.20;;;0.20;;
31081;SDS011;17737;52.586;13.284;2023-07-13T06:53:22;0.20;;;0.20;;
31081;SDS011;17737;52.586;13.284;2023-07-13T06:55:50;0.10;;;0.10;;
31081;SDS011;17737;52.586;13.284;2023-07-13T06:58:19;0.20;;;0.20;;
31081;SDS011;17737;52.586;13.284;2023-07-13T07:00:49;0.20;;;0.20;;
31081;SDS011;17737;52.586;13.284;2023-07-13T07:03:18;0.20;;;0.20;;
31081;SDS011;17737;52.586;13.284;2023-07-13T07:05:47;0.20;;;0.20;;
31081;SDS011;17737;52.586;13.284;2023-07-13T07:08:17;0.10;;;0.10;;
31081;SDS011;17737;52.586;13.284;2023-07-13T07:10:45;0.20;;;0.20;;
31081;SDS011;17737;52.586;13.284;2023-07-13T07:13:13;0.20;;;0.20;;
31081;SDS011;17737;52.586;13.284;2023-07-13T07:15:41;0.20;;;0.20;;
31081;SDS011;17737;52.586;13.284;2023-07-13T07:18:09;0.17;;;0.17;;
31081;SDS011;17737;52.586;13.284;2023-07-13T07:20:37;0.20;;;0.20;;
31081;SDS011;17737;52.586;13.284;2023-07-13T07:23:05;0.17;;;0.17;;
31081;SDS011;17737;52.586;13.284;2023-07-13T07:25:34;0.20;;;0.20;;
31081;SDS011;17737;52.586;13.284;2023-07-13T07:28:08;0.20;;;0.20;;
31081;SDS011;17737;52.586;13.284;2023-07-13T07:30:57;0.10;;;0.10;;
31081;SDS011;17737;52.586;13.284;2023-07-13T07:33:28;0.10;;;0.10;;
31081;SDS011;17737;52.586;13.284;2023-07-13T07:35:56;0.20;;;0.20;;
31081;SDS011;17737;52.586;13.284;2023-07-13T07:38:27;0.20;;;0.20;;
31081;SDS011;17737;52.586;13.284;2023-07-13T07:40:57;0.20;;;0.20;;
31081;SDS011;17737;52.586;13.284;2023-07-13T07:43:28;0.10;;;0.10;;
31081;SDS011;17737;52.586;13.284;2023-07-13T07:45:56;0.10;;;0.10;;
31081;SDS011;17737;52.586;13.284;2023-07-13T07:48:28;0.15;;;0.15;;
31081;SDS011;17737;52.586;13.284;2023-07-13T07:50:56;0.10;;;0.10;;
31081;SDS011;17737;52.586;13.284;2023-07-13T07:53:24;0.10;;;0.10;;
31081;SDS011;17737;52.586;13.284;2023-07-13T07:56:00;0.10;;;0.10;;
31081;SDS011;17737;52.586;13.284;2023-07-13T07:58:48;0.20;;;0.20;;
31081;SDS011;17737;52.586;13.284;2023-07-13T08:01:19;0.17;;;0.17;;
31081;SDS011;17737;52.586;13.284;2023-07-13T08:03:50;0.10;;;0.10;;
31081;SDS011;17737;52.586;13.284;2023-07-13T08:06:21;0.10;;;0.10;;
31081;SDS011;17737;52.586;13.284;2023-07-13T08:08:52;0.10;;;0.10;;
31081;SDS011;17737;52.586;13.284;2023-07-13T08:11:21;0.10;;;0.10;;
31081;SDS011;17737;52.586;13.284;2023-07-13T08:13:52;0.10;;;0.10;;
31081;SDS011;17737;52.586;13.284;2023-07-13T08:16:21;0.15;;;0.15;;
31081;SDS011;17737;52.586;13.284;2023-07-13T08:18:50;0.13;;;0.13;;
31081;SDS011;17737;52.586;13.284;2023-07-13T08:21:18;0.10;;;0.10;;
31081;SDS011;17737;52.586;13.284;2023-07-13T08:23:46;0.10;;;0.10;;
31081;SDS011;17737;52.586;13.284;2023-07-13T08:26:16;0.10;;;0.10;;
31081;SDS011;17737;52.586;13.284;2023-07-13T08:28:46;0.10;;;0.10;;
31081;SDS011;17737;52.586;13.284;2023-07-13T08:31:14;0.10;;;0.10;;
31081;SDS011;17737;52.586;13.284;2023-07-13T08:33:42;0.10;;;0.10;;
31081;SDS011;17737;52.586;13.284;2023-07-13T08:36:10;0.10;;;0.10;;
31081;SDS011;17737;52.586;13.284;2023-07-13T08:38:38;0.10;;;0.10;;
31081;SDS011;17737;52.586;13.284;2023-07-13T08:41:10;0.10;;;0.10;;
31081;SDS011;17737;52.586;13.284;2023-07-13T08:43:42;0.20;;;0.20;;
31081;SDS011;17737;52.586;13.284;2023-07-13T08:46:18;0.10;;;0.10;;
31081;SDS011;17737;52.586;13.284;2023-07-13T08:48:56;0.10;;;0.10;;
31081;SDS011;17737;52.586;13.284;2023-07-13T08:51:35;0.10;;;0.10;;
31081;SDS011;17737;52.586;13.284;2023-07-13T08:54:23;0.10;;;0.10;;
31081;SDS011;17737;52.586;13.284;2023-07-13T08:56:58;0.10;;;0.10;;
31081;SDS011;17737;52.586;13.284;2023-07-13T08:59:34;0.15;;;0.15;;
31081;SDS011;17737;52.586;13.284;2023-07-13T09:02:09;0.10;;;0.10;;
31081;SDS011;17737;52.586;13.284;2023-07-13T09:04:50;0.10;;;0.10;;
31081;SDS011;17737;52.586;13.284;2023-07-13T09:07:33;0.10;;;0.10;;
31081;SDS011;17737;52.586;13.284;2023-07-13T09:10:23;0.10;;;0.10;;
31081;SDS011;17737;52.586;13.284;2023-07-13T09:13:00;0.20;;;0.20;;
31081;SDS011;17737;52.586;13.284;2023-07-13T09:15:48;0.10;;;0.10;;
31081;SDS011;17737;52.586;13.284;2023-07-13T09:18:20;0.10;;;0.10;;
31081;SDS011;17737;52.586;13.284;2023-07-13T09:20:57;0.20;;;0.20;;
31081;SDS011;17737;52.586;13.284;2023-07-13T09:23:31;0.10;;;0.10;;
31081;SDS011;17737;52.586;13.284;2023-07-13T09:26:00;0.10;;;0.10;;
31081;SDS011;17737;52.586;13.284;2023-07-13T09:28:34;0.13;;;0.13;;
31081;SDS011;17737;52.586;13.284;2023-07-13T09:31:13;0.10;;;0.10;;
31081;SDS011;17737;52.586;13.284;2023-07-13T09:33:45;0.10;;;0.10;;
31081;SDS011;17737;52.586;13.284;2023-07-13T09:36:17;0.10;;;0.10;;
31081;SDS011;17737;52.586;13.284;2023-07-13T09:38:53;0.10;;;0.10;;
31081;SDS011;17737;52.586;13.284;2023-07-13T09:41:33;0.10;;;0.10;;
31081;SDS011;17737;52.586;13.284;2023-07-13T09:44:14;0.10;;;0.10;;
31081;SDS011;17737;52.586;13.284;2023-07-13T09:46:46;0.10;;;0.10;;
31081;SDS011;17737;52.586;13.284;2023-07-13T09:49:23;0.10;;;0.10;;
31081;SDS011;17737;52.586;13.284;2023-07-13T09:51:57;0.10;;;0.10;;
31081;SDS011;17737;52.586;13.284;2023-07-13T09:54:28;0.10;;;0.10;;
31081;SDS011;17737;52.586;13.284;2023-07-13T09:56:58;0.10;;;0.10;;
31081;SDS011;17737;52.586;13.284;2023-07-13T09:59:28;0.10;;;0.10;;
31081;SDS011;17737;52.586;13.284;2023-07-13T10:02:01;0.10;;;0.10;;
31081;SDS011;17737;52.586;13.284;2023-07-13T10:04:53;0.10;;;0.10;;
31081;SDS011;17737;52.586;13.284;2023-07-13T10:07:24;0.10;;;0.10;;
31081;SDS011;17737;52.586;13.284;2023-07-13T10:09:55;0.10;;;0.10;;
31081;SDS011;17737;52.586;13.284;2023-07-13T10:12:28;0.10;;;0.10;;
31081;SDS011;17737;52.586;13.284;2023-07-13T10:15:02;0.10;;;0.10;;
31081;SDS011;17737;52.586;13.284;2023-07-13T10:17:50;0.10;;;0.10;;
31081;SDS011;17737;52.586;13.284;2023-07-13T10:20:23;0.10;;;0.10;;
31081;SDS011;17737;52.586;13.284;2023-07-13T10:22:54;0.20;;;0.20;;
31081;SDS011;17737;52.586;13.284;2023-07-13T10:25:28;0.20;;;0.20;;
31081;SDS011;17737;52.586;13.284;2023-07-13T10:28:02;0.10;;;0.10;;
31081;SDS011;17737;52.586;13.284;2023-07-13T10:30:39;0.10;;;0.10;;
31081;SDS011;17737;52.586;13.284;2023-07-13T10:33:15;0.10;;;0.10;;
31081;SDS011;17737;52.586;13.284;2023-07-13T10:35:43;0.10;;;0.10;;
31081;SDS011;17737;52.586;13.284;2023-07-13T10:38:14;0.10;;;0.10;;
31081;SDS011;17737;52.586;13.284;2023-07-13T10:40:50;0.15;;;0.15;;
31081;SDS011;17737;52.586;13.284;2023-07-13T10:43:27;0.10;;;0.10;;
31081;SDS011;17737;52.586;13.284;2023-07-13T10:46:03;0.20;;;0.20;;
31081;SDS011;17737;52.586;13.284;2023-07-13T10:48:36;0.10;;;0.10;;
31081;SDS011;17737;52.586;13.284;2023-07-13T10:51:08;0.10;;;0.10;;
31081;SDS011;17737;52.586;13.284;2023-07-13T10:53:39;0.20;;;0.20;;
31081;SDS011;17737;52.586;13.284;2023-07-13T10:56:16;0.10;;;0.10;;
31081;SDS011;17737;52.586;13.284;2023-07-13T10:59:01;0.10;;;0.10;;
31081;SDS011;17737;52.586;13.284;2023-07-13T11:01:40;0.15;;;0.15;;
31081;SDS011;17737;52.586;13.284;2023-07-13T11:04:23;0.10;;;0.10;;
31081;SDS011;17737;52.586;13.284;2023-07-13T11:06:56;0.10;;;0.10;;
31081;SDS011;17737;52.586;13.284;2023-07-13T11:09:38;0.10;;;0.10;;
31081;SDS011;17737;52.586;13.284;2023-07-13T11:12:27;0.10;;;0.10;;
31081;SDS011;17737;52.586;13.284;2023-07-13T11:15:28;0.10;;;0.10;;
31081;SDS011;17737;52.586;13.284;2023-07-13T11:18:19;0.10;;;0.10;;
31081;SDS011;17737;52.586;13.284;2023-07-13T11:20:52;0.10;;;0.10;;
31081;SDS011;17737;52.586;13.284;2023-07-13T11:24:01;0.10;;;0.10;;
31081;SDS011;17737;52.586;13.284;2023-07-13T11:26:39;0.10;;;0.10;;
31081;SDS011;17737;52.586;13.284;2023-07-13T11:29:14;0.10;;;0.10;;
31081;SDS011;17737;52.586;13.284;2023-07-13T11:32:00;0.08;;;0.08;;
31081;SDS011;17737;52.586;13.284;2023-07-13T11:34:50;0.10;;;0.10;;
31081;SDS011;17737;52.586;13.284;2023-07-13T11:37:19;0.10;;;0.10;;
31081;SDS011;17737;52.586;13.284;2023-07-13T11:39:51;0.10;;;0.10;;
31081;SDS011;17737;52.586;13.284;2023-07-13T11:42:21;0.10;;;0.10;;
31081;SDS011;17737;52.586;13.284;2023-07-13T11:44:50;0.10;;;0.10;;
31081;SDS011;17737;52.586;13.284;2023-07-13T11:47:39;0.10;;;0.10;;
31081;SDS011;17737;52.586;13.284;2023-07-13T11:50:16;0.10;;;0.10;;
31081;SDS011;17737;52.586;13.284;2023-07-13T11:52:48;0.10;;;0.10;;
31081;SDS011;17737;52.586;13.284;2023-07-13T11:55:21;0.10;;;0.10;;
31081;SDS011;17737;52.586;13.284;2023-07-13T11:57:51;0.10;;;0.10;;
31081;SDS011;17737;52.586;13.284;2023-07-13T12:00:30;0.15;;;0.15;;
31081;SDS011;17737;52.586;13.284;2023-07-13T12:03:00;0.13;;;0.13;;
31081;SDS011;17737;52.586;13.284;2023-07-13T12:05:32;0.10;;;0.10;;
31081;SDS011;17737;52.586;13.284;2023-07-13T12:08:09;0.10;;;0.10;;
31081;SDS011;17737;52.586;13.284;2023-07-13T12:10:55;0.10;;;0.10;;
31081;SDS011;17737;52.586;13.284;2023-07-13T12:13:26;0.17;;;0.17;;
31081;SDS011;17737;52.586;13.284;2023-07-13T12:15:56;0.10;;;0.10;;
31081;SDS011;17737;52.586;13.284;2023-07-13T12:18:28;0.10;;;0.10;;
31081;SDS011;17737;52.586;13.284;2023-07-13T12:21:00;0.10;;;0.10;;
31081;SDS011;17737;52.586;13.284;2023-07-13T12:23:31;0.10;;;0.10;;
31081;SDS011;17737;52.586;13.284;2023-07-13T12:26:02;0.10;;;0.10;;
31081;SDS011;17737;52.586;13.284;2023-07-13T12:28:36;0.10;;;0.10;;
31081;SDS011;17737;52.586;13.284;2023-07-13T12:31:19;0.10;;;0.10;;
31081;SDS011;17737;52.586;13.284;2023-07-13T12:33:58;0.10;;;0.10;;
31081;SDS011;17737;52.586;13.284;2023-07-13T12:36:32;0.10;;;0.10;;
31081;SDS011;17737;52.586;13.284;2023-07-13T12:39:11;0.10;;;0.10;;
31081;SDS011;17737;52.586;13.284;2023-07-13T12:41:42;0.10;;;0.10;;
31081;SDS011;17737;52.586;13.284;2023-07-13T12:44:11;0.10;;;0.10;;
31081;SDS011;17737;52.586;13.284;2023-07-13T12:46:52;0.10;;;0.10;;
31081;SDS011;17737;52.586;13.284;2023-07-13T12:49:28;0.10;;;0.10;;
31081;SDS011;17737;52.586;13.284;2023-07-13T12:52:02;0.10;;;0.10;;
31081;SDS011;17737;52.586;13.284;2023-07-13T12:54:51;0.10;;;0.10;;
31081;SDS011;17737;52.586;13.284;2023-07-13T12:57:31;0.10;;;0.10;;
31081;SDS011;17737;52.586;13.284;2023-07-13T13:00:10;0.10;;;0.10;;
31081;SDS011;17737;52.586;13.284;2023-07-13T13:02:52;0.10;;;0.10;;
31081;SDS011;17737;52.586;13.284;2023-07-13T13:05:42;0.10;;;0.10;;
31081;SDS011;17737;52.586;13.284;2023-07-13T13:08:12;0.10;;;0.10;;
31081;SDS011;17737;52.586;13.284;2023-07-13T13:10:42;0.10;;;0.10;;
31081;SDS011;17737;52.586;13.284;2023-07-13T13:13:11;0.10;;;0.10;;
31081;SDS011;17737;52.586;13.284;2023-07-13T13:15:40;0.10;;;0.10;;
31081;SDS011;17737;52.586;13.284;2023-07-13T13:18:12;0.10;;;0.10;;
31081;SDS011;17737;52.586;13.284;2023-07-13T13:20:44;0.10;;;0.10;;
31081;SDS011;17737;52.586;13.284;2023-07-13T13:23:14;0.10;;;0.10;;
31081;SDS011;17737;52.586;13.284;2023-07-13T13:25:46;0.10;;;0.10;;
31081;SDS011;17737;52.586;13.284;2023-07-13T13:28:17;0.10;;;0.10;;
31081;SDS011;17737;52.586;13.284;2023-07-13T13:30:49;0.10;;;0.10;;
31081;SDS011;17737;52.586;13.284;2023-07-13T13:33:19;0.20;;;0.20;;
31081;SDS011;17737;52.586;13.284;2023-07-13T13:35:49;0.10;;;0.10;;
31081;SDS011;17737;52.586;13.284;2023-07-13T13:38:19;0.10;;;0.10;;
31081;SDS011;17737;52.586;13.284;2023-07-13T13:40:54;0.10;;;0.10;;
31081;SDS011;17737;52.586;13.284;2023-07-13T13:43:23;0.10;;;0.10;;
31081;SDS011;17737;52.586;13.284;2023-07-13T13:45:54;0.10;;;0.10;;
31081;SDS011;17737;52.586;13.284;2023-07-13T13:48:28;0.10;;;0.10;;
31081;SDS011;17737;52.586;13.284;2023-07-13T13:51:00;0.10;;;0.10;;
31081;SDS011;17737;52.586;13.284;2023-07-13T13:53:40;0.10;;;0.10;;
31081;SDS011;17737;52.586;13.284;2023-07-13T13:56:10;0.10;;;0.10;;
31081;SDS011;17737;52.586;13.284;2023-07-13T13:58:38;0.10;;;0.10;;
31081;SDS011;17737;52.586;13.284;2023-07-13T14:01:11;0.10;;;0.10;;
31081;SDS011;17737;52.586;13.284;2023-07-13T14:03:43;0.10;;;0.10;;
31081;SDS011;17737;52.586;13.284;2023-07-13T14:06:14;0.10;;;0.10;;
31081;SDS011;17737;52.586;13.284;2023-07-13T14:08:43;0.10;;;0.10;;
31081;SDS011;17737;52.586;13.284;2023-07-13T14:11:13;0.10;;;0.10;;
31081;SDS011;17737;52.586;13.284;2023-07-13T14:13:45;0.20;;;0.20;;
31081;SDS011;17737;52.586;13.284;2023-07-13T14:16:18;0.10;;;0.10;;
31081;SDS011;17737;52.586;13.284;2023-07-13T14:18:50;0.10;;;0.10;;
31081;SDS011;17737;52.586;13.284;2023-07-13T14:21:19;0.10;;;0.10;;
31081;SDS011;17737;52.586;13.284;2023-07-13T14:23:49;0.10;;;0.10;;
31081;SDS011;17737;52.586;13.284;2023-07-13T14:26:20;0.10;;;0.10;;
31081;SDS011;17737;52.586;13.284;2023-07-13T14:28:53;0.10;;;0.10;;
31081;SDS011;17737;52.586;13.284;2023-07-13T14:31:25;0.10;;;0.10;;
31081;SDS011;17737;52.586;13.284;2023-07-13T14:33:56;0.10;;;0.10;;
31081;SDS011;17737;52.586;13.284;2023-07-13T14:36:26;0.10;;;0.10;;
31081;SDS011;17737;52.586;13.284;2023-07-13T14:38:59;0.10;;;0.10;;
31081;SDS011;17737;52.586;13.284;2023-07-13T14:41:37;0.10;;;0.10;;
31081;SDS011;17737;52.586;13.284;2023-07-13T14:44:08;0.10;;;0.10;;
31081;SDS011;17737;52.586;13.284;2023-07-13T14:46:40;0.10;;;0.10;;
31081;SDS011;17737;52.586;13.284;2023-07-13T14:49:12;0.08;;;0.08;;
31081;SDS011;17737;52.586;13.284;2023-07-13T14:54:17;0.10;;;0.10;;
31081;SDS011;17737;52.586;13.284;2023-07-13T14:56:47;0.10;;;0.10;;
31081;SDS011;17737;52.586;13.284;2023-07-13T14:59:15;0.10;;;0.10;;
31081;SDS011;17737;52.586;13.284;2023-07-13T15:01:44;0.10;;;0.10;;
31081;SDS011;17737;52.586;13.284;2023-07-13T15:04:16;0.10;;;0.10;;
31081;SDS011;17737;52.586;13.284;2023-07-13T15:06:52;0.10;;;0.10;;
31081;SDS011;17737;52.586;13.284;2023-07-13T15:09:25;0.10;;;0.10;;
31081;SDS011;17737;52.586;13.284;2023-07-13T15:11:57;0.10;;;0.10;;
31081;SDS011;17737;52.586;13.284;2023-07-13T15:14:26;0.10;;;0.10;;
31081;SDS011;17737;52.586;13.284;2023-07-13T15:16:58;0.10;;;0.10;;
31081;SDS011;17737;52.586;13.284;2023-07-13T15:19:27;0.10;;;0.10;;
31081;SDS011;17737;52.586;13.284;2023-07-13T15:21:55;0.10;;;0.10;;